Time;durP1;ratioP1;P1;durP2;ratioP2;P2;SDS_P1;SDS_P2;PMS_P1;PMS_P2;Temp;Humidity;BMP_temperature;BMP_pressure;BME280_temperature;BME280_humidity;BME280_pressure;Samples;Min_cycle;Max_cycle;Signal;HPM_P1;HPM_P2
2022/06/14 00:01:29;;;;;;;5.43;1.55;;;17.50;71.10;;;;;;5032488;28;20025;-64
2022/06/14 00:03:56;;;;;;;5.15;1.40;;;17.50;71.40;;;;;;5032867;28;20036;-63
2022/06/14 00:06:25;;;;;;;5.07;1.30;;;17.40;71.50;;;;;;5033078;28;20129;-63
2022/06/14 00:08:51;;;;;;;5.97;1.88;;;17.30;72.30;;;;;;5032874;28;20021;-62
2022/06/14 00:11:19;;;;;;;4.50;1.48;;;17.20;72.60;;;;;;5032686;28;20469;-64
2022/06/14 00:13:45;;;;;;;4.32;1.38;;;17.20;72.70;;;;;;5033305;28;20045;-67
2022/06/14 00:16:12;;;;;;;4.18;1.58;;;17.20;73.20;;;;;;5033458;28;20158;-62
2022/06/14 00:18:38;;;;;;;4.55;1.83;;;17.10;72.70;;;;;;5033740;28;20036;-62
2022/06/14 00:21:04;;;;;;;6.05;1.42;;;17.20;73.30;;;;;;5033713;28;20021;-63
2022/06/14 00:23:30;;;;;;;4.93;1.55;;;17.20;73.60;;;;;;5033008;28;20083;-62
2022/06/14 00:25:57;;;;;;;4.68;1.58;;;17.10;73.80;;;;;;5033586;28;20037;-63
2022/06/14 00:28:26;;;;;;;5.57;1.67;;;17.10;74.00;;;;;;5033415;28;20128;-66
2022/06/14 00:31:00;;;;;;;3.67;1.10;;;17.10;73.20;;;;;;5037693;28;20482;-64
2022/06/14 00:33:26;;;;;;;3.42;1.25;;;17.10;73.80;;;;;;5053091;28;20072;-63
2022/06/14 00:36:00;;;;;;;7.55;1.85;;;17.00;74.40;;;;;;5052796;28;20035;-66
2022/06/14 00:38:26;;;;;;;7.18;1.85;;;17.00;73.80;;;;;;5051758;28;20024;-66
2022/06/14 00:40:55;;;;;;;5.78;1.75;;;17.00;74.30;;;;;;5053160;28;20508;-65
2022/06/14 00:43:20;;;;;;;4.65;1.40;;;16.90;74.80;;;;;;5053135;28;20029;-67
2022/06/14 00:45:48;;;;;;;4.75;1.50;;;16.90;75.00;;;;;;5053229;28;20032;-68
2022/06/14 00:48:25;;;;;;;4.15;1.40;;;16.80;75.50;;;;;;5053067;28;20021;-66
2022/06/14 00:51:20;;;;;;;3.55;1.50;;;16.80;76.40;;;;;;5053199;28;20029;-68
2022/06/14 00:54:03;;;;;;;5.22;1.73;;;16.90;75.30;;;;;;5053285;28;20100;-68
2022/06/14 00:56:35;;;;;;;5.65;1.40;;;16.80;75.70;;;;;;5052877;28;20374;-68
2022/06/14 00:59:08;;;;;;;6.30;1.50;;;16.80;75.70;;;;;;5053050;28;20052;-67
2022/06/14 01:01:36;;;;;;;5.00;1.75;;;16.70;75.50;;;;;;5052771;28;20474;-67
2022/06/14 01:04:24;;;;;;;6.45;1.60;;;16.70;75.80;;;;;;5053196;28;20029;-68
2022/06/14 01:06:51;;;;;;;4.55;1.58;;;16.80;75.60;;;;;;5052920;28;20021;-68
2022/06/14 01:09:22;;;;;;;5.45;1.48;;;16.80;76.00;;;;;;5052771;28;20099;-67
2022/06/14 01:12:10;;;;;;;5.45;1.50;;;16.80;76.50;;;;;;5052926;28;20028;-67
2022/06/14 01:14:55;;;;;;;6.95;1.50;;;16.70;76.20;;;;;;5052634;28;20077;-68
2022/06/14 01:17:21;;;;;;;7.85;1.88;;;16.60;76.30;;;;;;5052798;28;20036;-68
2022/06/14 01:19:47;;;;;;;5.97;1.55;;;16.60;76.60;;;;;;5052841;28;20363;-68
2022/06/14 01:22:12;;;;;;;8.25;2.25;;;16.60;76.10;;;;;;5052455;28;20033;-66
2022/06/14 01:24:41;;;;;;;7.32;1.58;;;16.60;75.80;;;;;;5052284;28;20474;-69
2022/06/14 01:27:09;;;;;;;4.40;1.65;;;16.50;76.10;;;;;;5052878;28;20021;-67
2022/06/14 01:29:36;;;;;;;4.97;1.65;;;16.50;76.50;;;;;;5052668;28;20025;-69
2022/06/14 01:32:07;;;;;;;3.90;1.67;;;16.50;77.00;;;;;;5052824;28;20525;-68
2022/06/14 01:34:41;;;;;;;5.90;1.50;;;16.50;76.60;;;;;;5052519;28;20047;-70
2022/06/14 01:37:07;;;;;;;5.95;1.58;;;16.50;76.70;;;;;;5052490;28;20060;-67
2022/06/14 01:39:33;;;;;;;3.55;1.20;;;16.50;76.90;;;;;;5052634;28;20054;-68
2022/06/14 01:42:11;;;;;;;6.85;2.10;;;16.50;77.10;;;;;;5052805;28;20476;-68
2022/06/14 01:44:57;;;;;;;6.18;2.05;;;16.40;77.10;;;;;;5056233;28;20075;-68
2022/06/14 01:48:10;;;;;;;5.70;1.60;;;16.40;76.70;;;;;;5056574;28;20478;-68
2022/06/14 01:53:37;;;;;;;5.80;1.63;;;16.40;77.70;;;;;;5056208;28;20040;-63
2022/06/14 01:56:21;;;;;;;5.35;1.50;;;16.30;77.00;;;;;;5056118;28;20028;-63
2022/06/14 01:59:09;;;;;;;5.80;1.70;;;16.30;77.60;;;;;;5056344;28;20118;-67
2022/06/14 02:02:02;;;;;;;4.82;1.42;;;16.30;78.10;;;;;;5056053;28;20029;-66
2022/06/14 02:05:11;;;;;;;4.03;1.30;;;16.30;77.90;;;;;;5055689;28;20025;-62
2022/06/14 02:08:00;;;;;;;6.15;1.67;;;16.20;78.20;;;;;;5045208;28;20137;-63
2022/06/14 02:10:40;;;;;;;3.67;1.52;;;16.30;78.60;;;;;;5055916;28;20040;-62
2022/06/14 02:13:24;;;;;;;7.47;2.08;;;16.20;77.90;;;;;;5055952;28;20068;-63
2022/06/14 02:15:55;;;;;;;3.05;1.20;;;16.20;78.20;;;;;;5055710;28;20040;-63
2022/06/14 02:18:31;;;;;;;3.28;1.13;;;16.20;78.60;;;;;;5055592;28;20048;-65
2022/06/14 02:21:02;;;;;;;7.53;1.90;;;16.10;78.80;;;;;;5055856;28;20410;-67
2022/06/14 02:23:31;;;;;;;5.25;1.38;;;16.10;78.90;;;;;;5055673;28;20482;-66
2022/06/14 02:26:02;;;;;;;5.55;1.73;;;16.10;79.00;;;;;;5055496;28;20072;-64
2022/06/14 02:28:42;;;;;;;4.35;1.48;;;16.10;79.50;;;;;;5055627;28;20104;-68
2022/06/14 02:31:27;;;;;;;7.10;2.00;;;16.10;79.20;;;;;;5055646;28;20028;-66
2022/06/14 02:34:06;;;;;;;4.30;1.42;;;16.00;79.20;;;;;;5055438;28;20029;-67
2022/06/14 02:36:38;;;;;;;5.90;1.60;;;16.00;79.70;;;;;;5055532;28;20324;-66
2022/06/14 02:39:09;;;;;;;5.93;1.90;;;16.00;79.40;;;;;;5055499;28;20024;-67
2022/06/14 02:41:40;;;;;;;4.13;1.60;;;16.00;79.40;;;;;;5055321;28;20021;-67
2022/06/14 02:44:44;;;;;;;4.30;1.48;;;15.90;80.00;;;;;;5055577;28;20032;-66
2022/06/14 02:47:31;;;;;;;6.53;1.52;;;15.90;80.10;;;;;;5037835;28;20479;-67
2022/06/14 02:50:24;;;;;;;4.32;1.50;;;15.90;81.10;;;;;;5037355;28;20025;-67
2022/06/14 02:53:03;;;;;;;8.35;2.13;;;15.90;80.70;;;;;;5054792;28;20082;-63
2022/06/14 02:55:39;;;;;;;6.43;1.80;;;15.90;80.60;;;;;;5053914;28;20032;-67
2022/06/14 02:58:32;;;;;;;4.30;2.05;;;15.80;80.90;;;;;;5055228;28;20111;-67
2022/06/14 03:01:18;;;;;;;4.53;1.60;;;15.80;81.00;;;;;;5054824;28;20100;-68
2022/06/14 03:03:47;;;;;;;6.03;2.22;;;15.80;81.20;;;;;;5053797;28;20037;-63
2022/06/14 03:06:24;;;;;;;11.00;2.40;;;15.80;81.70;;;;;;5055024;28;20033;-67
2022/06/14 03:08:58;;;;;;;6.68;1.80;;;15.80;81.70;;;;;;5055137;28;20033;-64
2022/06/14 03:11:45;;;;;;;4.75;1.90;;;15.70;81.20;;;;;;5054846;28;20028;-67
2022/06/14 03:14:21;;;;;;;5.10;2.00;;;15.70;81.60;;;;;;5054865;28;20037;-66
2022/06/14 03:17:22;;;;;;;6.63;2.42;;;15.60;82.00;;;;;;5054271;28;20434;-66
2022/06/14 03:19:48;;;;;;;6.30;2.20;;;15.60;82.20;;;;;;5054828;28;20100;-63
2022/06/14 03:22:24;;;;;;;7.40;2.60;;;15.60;82.00;;;;;;5054737;28;20096;-66
2022/06/14 03:24:59;;;;;;;6.30;2.15;;;15.50;82.20;;;;;;5054743;28;20067;-66
2022/06/14 03:27:35;;;;;;;4.63;1.90;;;15.80;80.80;;;;;;5054201;28;20025;-67
2022/06/14 03:30:15;;;;;;;6.70;2.08;;;15.90;80.40;;;;;;5054749;28;20104;-67
2022/06/14 03:33:01;;;;;;;6.95;2.10;;;16.00;80.10;;;;;;5054113;28;20025;-68
2022/06/14 03:35:40;;;;;;;4.15;1.88;;;16.10;79.70;;;;;;5054448;28;20029;-66
2022/06/14 03:38:37;;;;;;;5.05;2.13;;;16.10;79.70;;;;;;5054410;28;20100;-66
2022/06/14 03:41:05;;;;;;;6.25;2.08;;;16.00;79.70;;;;;;5054461;28;20029;-67
2022/06/14 03:43:34;;;;;;;6.22;1.70;;;16.00;79.60;;;;;;5054126;28;20040;-65
2022/06/14 03:46:09;;;;;;;4.65;2.20;;;16.00;79.80;;;;;;5053997;28;20033;-68
2022/06/14 03:48:38;;;;;;;9.95;2.40;;;16.00;79.80;;;;;;5054303;28;20029;-65
2022/06/14 03:51:15;;;;;;;7.78;2.30;;;16.10;80.10;;;;;;5054441;28;20105;-64
2022/06/14 03:54:02;;;;;;;8.00;2.33;;;16.00;80.20;;;;;;5053630;28;20444;-66
2022/06/14 03:56:39;;;;;;;8.57;2.45;;;16.10;80.50;;;;;;5053945;28;20025;-66
2022/06/14 03:59:31;;;;;;;6.70;2.42;;;16.00;80.40;;;;;;5053866;28;20477;-63
2022/06/14 04:02:17;;;;;;;5.17;2.27;;;16.00;80.20;;;;;;5049605;28;20552;-63
2022/06/14 04:05:06;;;;;;;7.45;2.50;;;16.00;80.70;;;;;;5053777;28;20271;-66
2022/06/14 04:07:34;;;;;;;4.78;1.77;;;16.00;81.00;;;;;;5053481;28;20194;-63
2022/06/14 04:10:14;;;;;;;5.95;2.33;;;16.00;81.20;;;;;;5053803;28;20037;-64
2022/06/14 04:12:53;;;;;;;4.93;1.85;;;15.90;81.40;;;;;;5053358;28;20029;-62
2022/06/14 04:15:48;;;;;;;6.65;2.60;;;15.90;81.30;;;;;;5036241;28;20065;-64
2022/06/14 04:18:35;;;;;;;5.93;2.17;;;15.90;81.80;;;;;;5050702;28;20032;-64
2022/06/14 04:21:06;;;;;;;4.70;2.42;;;15.90;82.40;;;;;;5053622;28;20028;-63
2022/06/14 04:23:42;;;;;;;8.00;2.38;;;15.90;82.30;;;;;;5053328;28;20155;-64
2022/06/14 04:26:37;;;;;;;5.70;2.50;;;15.90;82.60;;;;;;5053421;28;20021;-62
2022/06/14 04:29:17;;;;;;;4.88;2.50;;;15.90;82.80;;;;;;5053127;28;20021;-63
2022/06/14 04:32:01;;;;;;;4.95;2.13;;;15.80;83.30;;;;;;5051861;28;20082;-63
2022/06/14 04:34:37;;;;;;;7.43;2.72;;;15.90;83.60;;;;;;5053281;28;20108;-63
2022/06/14 04:37:12;;;;;;;10.68;2.58;;;15.90;83.70;;;;;;5053524;28;20017;-63
2022/06/14 04:39:49;;;;;;;5.65;2.83;;;15.90;84.10;;;;;;5052935;28;20032;-63
2022/06/14 04:42:23;;;;;;;7.07;2.70;;;15.80;84.00;;;;;;5053313;28;20455;-62
2022/06/14 04:45:01;;;;;;;6.93;2.85;;;15.90;84.50;;;;;;5053005;28;20029;-62
2022/06/14 04:47:38;;;;;;;6.57;2.95;;;15.90;84.70;;;;;;5053064;28;20033;-62
2022/06/14 04:50:19;;;;;;;7.32;2.75;;;15.90;83.90;;;;;;5053120;28;20017;-68
2022/06/14 04:52:58;;;;;;;4.53;2.95;;;15.90;84.20;;;;;;5053050;28;20031;-68
2022/06/14 04:55:32;;;;;;;6.45;3.03;;;16.00;84.70;;;;;;5053328;28;20061;-63
2022/06/14 04:58:08;;;;;;;5.43;3.10;;;16.20;83.60;;;;;;5051554;28;20025;-62
2022/06/14 05:00:47;;;;;;;8.23;2.85;;;16.30;83.70;;;;;;5036115;28;20036;-62
2022/06/14 05:03:22;;;;;;;5.20;3.08;;;16.60;83.20;;;;;;5044105;28;20060;-63
2022/06/14 05:05:59;;;;;;;8.55;3.42;;;16.80;82.70;;;;;;5042675;28;20099;-68
2022/06/14 05:08:39;;;;;;;7.68;3.30;;;16.80;82.60;;;;;;5050714;28;20028;-66
2022/06/14 05:11:15;;;;;;;8.95;3.33;;;16.90;82.40;;;;;;5046526;28;20021;-67
2022/06/14 05:14:04;;;;;;;12.95;3.20;;;16.60;82.80;;;;;;5048299;28;20044;-65
2022/06/14 05:16:38;;;;;;;10.55;3.50;;;16.50;84.10;;;;;;5046848;28;20409;-68
2022/06/14 05:19:24;;;;;;;10.98;3.75;;;16.50;84.40;;;;;;5050368;28;20025;-68
2022/06/14 05:22:03;;;;;;;9.38;3.50;;;16.40;82.40;;;;;;5054912;28;20021;-67
2022/06/14 05:24:29;;;;;;;10.77;4.18;;;16.60;82.30;;;;;;5056128;28;20120;-65
2022/06/14 05:27:21;;;;;;;10.25;3.30;;;16.70;79.80;;;;;;5054683;28;20025;-68
2022/06/14 05:30:09;;;;;;;10.63;3.70;;;16.80;79.70;;;;;;5053331;28;20087;-69
2022/06/14 05:33:00;;;;;;;9.27;2.95;;;16.80;78.40;;;;;;5054669;28;20535;-68
2022/06/14 05:35:37;;;;;;;6.85;2.78;;;16.60;78.50;;;;;;5054970;28;20512;-68
2022/06/14 05:38:21;;;;;;;9.80;3.00;;;16.80;78.90;;;;;;5048672;28;20033;-67
2022/06/14 05:41:00;;;;;;;9.07;2.63;;;17.00;78.10;;;;;;5047031;28;20025;-64
2022/06/14 05:43:42;;;;;;;10.02;2.83;;;17.20;77.70;;;;;;5045623;28;20021;-65
2022/06/14 05:46:11;;;;;;;9.18;3.00;;;17.40;77.00;;;;;;5021286;28;20068;-67
2022/06/14 05:48:46;;;;;;;8.77;2.75;;;17.50;75.50;;;;;;5051732;28;20437;-68
2022/06/14 05:51:15;;;;;;;7.30;3.08;;;17.70;75.10;;;;;;5047698;28;20029;-63
2022/06/14 05:53:52;;;;;;;10.13;2.78;;;17.80;74.90;;;;;;5047248;28;20060;-64
2022/06/14 05:56:34;;;;;;;9.00;2.70;;;18.00;74.90;;;;;;5050279;28;20025;-61
2022/06/14 05:59:09;;;;;;;11.73;3.10;;;18.10;73.80;;;;;;5052895;28;20025;-62
2022/06/14 06:01:38;;;;;;;9.75;2.67;;;18.30;73.50;;;;;;5053245;28;20047;-63
2022/06/14 06:04:42;;;;;;;8.05;2.75;;;18.40;73.20;;;;;;5028110;28;20028;-62
2022/06/14 06:07:15;;;;;;;5.40;2.40;;;18.50;73.30;;;;;;5047475;28;20040;-60
2022/06/14 06:10:07;;;;;;;7.72;2.55;;;18.60;72.50;;;;;;5051305;28;20029;-62
2022/06/14 06:12:38;;;;;;;7.50;2.25;;;18.80;72.80;;;;;;5037225;28;20025;-66
2022/06/14 06:15:22;;;;;;;8.85;2.50;;;18.80;73.60;;;;;;5050013;28;20088;-65
2022/06/14 06:17:55;;;;;;;8.73;2.35;;;18.80;74.20;;;;;;5052543;28;20024;-64
2022/06/14 06:20:52;;;;;;;7.20;3.13;;;18.90;74.00;;;;;;5054460;28;20028;-63
2022/06/14 06:23:24;;;;;;;10.50;2.80;;;19.00;74.60;;;;;;5052455;28;20543;-63
2022/06/14 06:25:53;;;;;;;6.13;2.55;;;19.20;74.30;;;;;;5054780;28;20047;-67
2022/06/14 06:28:24;;;;;;;5.80;1.95;;;19.30;74.20;;;;;;5054585;28;20478;-68
2022/06/14 06:31:03;;;;;;;10.15;3.15;;;19.40;74.10;;;;;;5050981;28;21388;-64
2022/06/14 06:33:33;;;;;;;5.97;2.22;;;19.50;73.50;;;;;;5050138;28;20041;-63
2022/06/14 06:36:26;;;;;;;5.22;2.00;;;19.60;73.80;;;;;;5052178;28;20017;-64
2022/06/14 06:39:12;;;;;;;8.38;2.13;;;19.60;73.50;;;;;;5042724;28;20494;-67
2022/06/14 06:41:55;;;;;;;8.98;2.33;;;19.80;72.70;;;;;;5035498;28;20046;-62
2022/06/14 06:44:36;;;;;;;7.82;2.20;;;19.80;72.60;;;;;;5034946;28;20045;-62
2022/06/14 06:47:19;;;;;;;8.03;2.27;;;20.00;70.20;;;;;;5034717;28;20029;-62
2022/06/14 06:50:02;;;;;;;5.47;1.98;;;20.20;69.50;;;;;;5041686;28;20283;-64
2022/06/14 06:52:46;;;;;;;9.30;2.15;;;20.30;68.80;;;;;;5048715;28;20498;-63
2022/06/14 06:55:17;;;;;;;7.10;1.98;;;20.40;66.80;;;;;;5054549;28;20124;-62
2022/06/14 06:57:46;;;;;;;7.82;2.00;;;20.50;66.30;;;;;;5054933;28;20063;-61
2022/06/14 07:00:15;;;;;;;10.00;2.75;;;20.50;67.00;;;;;;5055220;28;20021;-63
2022/06/14 07:02:49;;;;;;;7.78;2.72;;;20.60;66.80;;;;;;5055133;28;20025;-61
2022/06/14 07:05:17;;;;;;;6.72;2.13;;;20.70;66.80;;;;;;5054956;28;20029;-62
2022/06/14 07:07:52;;;;;;;7.82;2.35;;;20.80;66.30;;;;;;5054599;28;20044;-62
2022/06/14 07:10:42;;;;;;;4.90;1.83;;;20.90;65.50;;;;;;5054593;28;20021;-62
2022/06/14 07:13:20;;;;;;;13.82;2.60;;;21.00;66.00;;;;;;5054823;28;20029;-63
2022/06/14 07:16:05;;;;;;;6.97;2.00;;;21.00;65.10;;;;;;5054729;28;20428;-62
2022/06/14 07:18:42;;;;;;;6.18;1.50;;;21.10;64.30;;;;;;5036966;28;20021;-62
2022/06/14 07:21:19;;;;;;;9.30;2.10;;;21.20;63.50;;;;;;5054649;28;20030;-61
2022/06/14 07:23:55;;;;;;;5.43;1.70;;;21.30;63.10;;;;;;5054167;28;20029;-62
2022/06/14 07:26:30;;;;;;;4.68;1.80;;;21.30;62.80;;;;;;5054769;28;20010;-62
2022/06/14 07:29:24;;;;;;;4.65;1.73;;;21.30;61.40;;;;;;5054456;28;20029;-62
2022/06/14 07:31:59;;;;;;;6.55;1.50;;;21.50;61.40;;;;;;5053715;28;20037;-63
2022/06/14 07:34:26;;;;;;;7.63;1.65;;;21.50;60.80;;;;;;5054535;28;20025;-65
2022/06/14 07:37:14;;;;;;;6.20;1.60;;;21.50;60.60;;;;;;5054475;28;20473;-62
2022/06/14 07:40:02;;;;;;;4.72;1.52;;;21.60;59.80;;;;;;5054381;28;20100;-67
2022/06/14 07:43:04;;;;;;;6.22;1.15;;;21.80;59.20;;;;;;5054076;28;20029;-67
2022/06/14 07:45:34;;;;;;;6.28;1.50;;;21.90;58.60;;;;;;5032784;28;20045;-64
2022/06/14 07:48:22;;;;;;;3.75;1.25;;;21.90;58.70;;;;;;5054124;28;20433;-65
2022/06/14 07:50:59;;;;;;;4.65;1.25;;;21.80;59.60;;;;;;5054439;28;20021;-62
2022/06/14 07:53:38;;;;;;;4.75;1.10;;;21.80;60.00;;;;;;5053504;28;20033;-67
2022/06/14 07:56:17;;;;;;;4.28;1.20;;;21.90;60.40;;;;;;5053488;28;20078;-66
2022/06/14 07:58:48;;;;;;;4.47;0.85;;;21.90;60.70;;;;;;5048580;28;20018;-63
2022/06/14 08:01:18;;;;;;;4.00;1.52;;;21.90;60.00;;;;;;5044224;28;20470;-68
2022/06/14 08:04:06;;;;;;;4.00;1.10;;;22.00;60.70;;;;;;5045161;28;20036;-64
2022/06/14 08:06:37;;;;;;;3.22;1.52;;;22.00;59.90;;;;;;5045792;28;20052;-68
2022/06/14 08:09:23;;;;;;;5.15;1.30;;;22.10;59.60;;;;;;5046765;28;20501;-68
2022/06/14 08:11:55;;;;;;;10.20;1.67;;;22.30;58.00;;;;;;5045004;28;20047;-67
2022/06/14 08:14:37;;;;;;;3.92;0.98;;;22.30;58.10;;;;;;5052723;28;20037;-68
2022/06/14 08:17:03;;;;;;;;;;;22.40;57.40;;;;;;5048222;28;20055;-69
2022/06/14 08:19:37;;;;;;;3.60;1.25;;;22.60;56.60;;;;;;5047761;28;19999;-68
2022/06/14 08:22:12;;;;;;;5.30;1.45;;;22.40;57.70;;;;;;5052038;28;20025;-68
2022/06/14 08:24:52;;;;;;;6.05;1.40;;;22.40;59.80;;;;;;5052965;28;20051;-68
2022/06/14 08:27:23;;;;;;;3.53;1.02;;;22.50;57.90;;;;;;5051276;28;20061;-68
2022/06/14 08:30:06;;;;;;;3.45;1.10;;;22.60;57.00;;;;;;5052458;28;20053;-67
2022/06/14 08:32:46;;;;;;;5.75;1.15;;;22.70;56.70;;;;;;5041260;28;20053;-68
2022/06/14 08:35:33;;;;;;;4.57;1.10;;;22.80;55.90;;;;;;5032266;28;20041;-70
2022/06/14 08:38:04;;;;;;;4.65;0.85;;;22.80;56.20;;;;;;5046986;28;20033;-69
2022/06/14 08:40:45;;;;;;;2.75;1.02;;;22.60;57.20;;;;;;5052351;28;20399;-69
2022/06/14 08:43:16;;;;;;;3.00;1.02;;;22.50;56.80;;;;;;5047010;28;20538;-69
2022/06/14 08:46:00;;;;;;;4.70;1.20;;;22.50;57.20;;;;;;5032741;28;20402;-68
2022/06/14 08:48:49;;;;;;;7.75;1.48;;;22.50;57.80;;;;;;5032316;28;20104;-69
2022/06/14 08:51:42;;;;;;;4.75;1.08;;;22.60;57.00;;;;;;5031822;28;20437;-69
2022/06/14 08:54:16;;;;;;;3.97;1.10;;;22.60;56.60;;;;;;5031848;28;20033;-68
2022/06/14 08:57:01;;;;;;;6.28;1.50;;;22.60;57.30;;;;;;5041048;28;20028;-69
2022/06/14 08:59:30;;;;;;;2.33;0.93;;;22.60;56.30;;;;;;5051905;28;20020;-69
2022/06/14 09:01:58;;;;;;;4.10;1.15;;;22.70;57.60;;;;;;5042524;28;20043;-68
2022/06/14 09:04:29;;;;;;;4.50;1.40;;;22.70;57.80;;;;;;5051830;28;20025;-69
2022/06/14 09:07:29;;;;;;;3.47;1.30;;;22.70;58.10;;;;;;5033821;28;20557;-68
2022/06/14 09:10:48;;;;;;;6.03;1.10;;;22.70;58.20;;;;;;5031798;28;20029;-68
2022/06/14 09:13:48;;;;;;;3.92;0.98;;;22.70;59.30;;;;;;5020011;28;20559;-68
2022/06/14 09:16:41;;;;;;;3.90;1.20;;;22.70;59.80;;;;;;5031667;28;20042;-67
2022/06/14 09:19:33;;;;;;;6.82;1.50;;;22.80;57.70;;;;;;5031776;28;20159;-69
2022/06/14 09:22:37;;;;;;;5.40;1.40;;;22.90;56.60;;;;;;5031808;28;20048;-68
2022/06/14 09:25:06;;;;;;;4.40;1.70;;;22.80;56.90;;;;;;4988240;28;20507;-68
2022/06/14 09:27:51;;;;;;;4.05;1.70;;;22.80;56.60;;;;;;5032291;28;20105;-69
2022/06/14 09:30:38;;;;;;;5.22;1.42;;;22.90;55.80;;;;;;5036384;28;20019;-67
2022/06/14 09:33:10;;;;;;;4.30;1.00;;;22.90;56.00;;;;;;5052133;28;20075;-68
2022/06/14 09:36:06;;;;;;;3.63;1.02;;;22.90;57.00;;;;;;5051820;28;20060;-67
2022/06/14 09:38:56;;;;;;;6.53;1.70;;;22.90;59.70;;;;;;5052294;28;20025;-68
2022/06/14 09:41:42;;;;;;;6.20;1.52;;;23.00;57.30;;;;;;5051324;28;20063;-68
2022/06/14 09:44:40;;;;;;;4.18;1.30;;;22.90;56.50;;;;;;5051857;28;20029;-68
2022/06/14 09:47:43;;;;;;;5.28;1.23;;;23.00;56.30;;;;;;5051999;28;20037;-67
2022/06/14 09:50:27;;;;;;;3.38;1.40;;;22.90;56.50;;;;;;5051237;28;20029;-69
2022/06/14 09:53:11;;;;;;;5.43;1.45;;;23.10;55.30;;;;;;5051672;28;20053;-67
2022/06/14 09:56:00;;;;;;;5.57;1.60;;;23.00;56.50;;;;;;5050772;28;20033;-68
2022/06/14 09:58:47;;;;;;;5.25;1.40;;;23.00;56.90;;;;;;5048504;28;20048;-62
2022/06/14 10:01:30;;;;;;;5.40;1.60;;;23.00;57.80;;;;;;5050122;28;20070;-62
2022/06/14 10:04:14;;;;;;;6.35;1.45;;;23.00;57.30;;;;;;5031880;28;20428;-61
2022/06/14 10:06:54;;;;;;;4.70;0.93;;;23.00;56.30;;;;;;5050136;28;20499;-64
2022/06/14 10:09:46;;;;;;;4.53;1.15;;;23.00;57.50;;;;;;5047502;28;20124;-62
2022/06/14 10:12:28;;;;;;;4.13;0.90;;;23.10;55.40;;;;;;5049258;28;20025;-63
2022/06/14 10:15:01;;;;;;;4.22;1.55;;;23.10;56.40;;;;;;5049221;28;20051;-62
2022/06/14 10:17:29;;;;;;;4.57;1.02;;;23.00;54.30;;;;;;5049005;28;20501;-63
2022/06/14 10:20:24;;;;;;;3.28;1.42;;;22.90;56.80;;;;;;5054404;28;20028;-63
2022/06/14 10:23:17;;;;;;;3.58;1.70;;;22.90;56.10;;;;;;5052593;28;20021;-67
2022/06/14 10:28:56;;;;;;;6.47;2.05;;;23.00;55.20;;;;;;5049296;28;20079;-63
2022/06/14 10:31:49;;;;;;;5.00;1.77;;;22.90;55.30;;;;;;5051329;28;20028;-65
2022/06/14 10:34:29;;;;;;;2.70;0.93;;;22.90;55.50;;;;;;5047458;28;20076;-65
2022/06/14 10:37:11;;;;;;;5.00;1.40;;;22.80;56.70;;;;;;5044223;28;20026;-63
2022/06/14 10:39:55;;;;;;;4.75;1.25;;;22.90;55.60;;;;;;5052024;28;20044;-64
2022/06/14 10:43:03;;;;;;;6.35;2.13;;;22.90;55.50;;;;;;5034817;28;20026;-61
2022/06/14 10:45:40;;;;;;;5.32;1.58;;;22.90;55.00;;;;;;5016696;28;20041;-68
2022/06/14 10:48:27;;;;;;;5.05;1.42;;;22.80;55.30;;;;;;5037276;28;20029;-68
2022/06/14 10:51:21;;;;;;;8.02;1.52;;;22.80;55.00;;;;;;5041917;28;20028;-67
2022/06/14 10:53:56;;;;;;;5.53;1.38;;;22.80;55.50;;;;;;5040010;28;20513;-64
2022/06/14 10:56:54;;;;;;;6.88;1.90;;;22.80;55.40;;;;;;5048426;28;20029;-66
2022/06/14 10:59:38;;;;;;;5.78;2.05;;;22.80;55.30;;;;;;5049515;28;20047;-66
2022/06/14 11:02:14;;;;;;;5.68;1.90;;;22.70;55.90;;;;;;5048188;28;20072;-67
2022/06/14 11:04:48;;;;;;;6.18;1.75;;;22.70;56.50;;;;;;5046145;28;20057;-65
2022/06/14 11:07:52;;;;;;;5.18;1.58;;;22.70;56.40;;;;;;5045915;28;20481;-67
2022/06/14 11:10:36;;;;;;;4.38;1.48;;;22.70;55.90;;;;;;5052235;28;20032;-69
2022/06/14 11:13:39;;;;;;;4.18;1.90;;;22.80;57.90;;;;;;5050933;28;20504;-65
2022/06/14 11:16:39;;;;;;;5.65;1.38;;;22.60;55.90;;;;;;5052195;28;20041;-68
2022/06/14 11:22:13;;;;;;;9.38;2.17;;;22.60;58.30;;;;;;5047354;28;20413;-67
2022/06/14 11:25:14;;;;;;;6.05;1.73;;;22.50;56.70;;;;;;5042628;28;20118;-67
2022/06/14 11:27:45;;;;;;;3.67;1.63;;;22.50;57.60;;;;;;5026703;28;20482;-65
2022/06/14 11:30:40;;;;;;;6.23;2.10;;;22.50;57.00;;;;;;5049372;28;20108;-67
2022/06/14 11:33:33;;;;;;;4.32;1.25;;;22.40;56.80;;;;;;5049852;28;20614;-67
2022/06/14 11:36:23;;;;;;;3.92;0.98;;;22.40;57.00;;;;;;5044712;28;20086;-68
2022/06/14 11:39:04;;;;;;;7.10;1.52;;;22.50;60.00;;;;;;5047038;28;20024;-67
2022/06/14 11:41:37;;;;;;;5.38;1.90;;;22.60;58.60;;;;;;5047597;28;20064;-66
2022/06/14 11:44:21;;;;;;;7.63;1.75;;;22.50;57.20;;;;;;5045530;28;20021;-66
2022/06/14 11:46:59;;;;;;;4.82;1.60;;;22.60;57.20;;;;;;5042816;28;20037;-68
2022/06/14 11:49:31;;;;;;;6.72;1.42;;;22.60;57.60;;;;;;5044261;28;20057;-66
2022/06/14 11:52:05;;;;;;;4.50;1.20;;;22.60;58.00;;;;;;5046020;28;20223;-67
2022/06/14 11:54:50;;;;;;;4.30;1.42;;;22.70;59.80;;;;;;5043541;28;20049;-67
2022/06/14 11:57:33;;;;;;;4.38;1.80;;;22.70;58.00;;;;;;5034027;28;20029;-63
2022/06/14 12:00:27;;;;;;;5.38;1.50;;;22.70;57.60;;;;;;5034989;28;20382;-62
2022/06/14 12:03:06;;;;;;;4.53;1.63;;;22.60;58.50;;;;;;5042064;28;20103;-63
2022/06/14 12:05:50;;;;;;;5.07;2.00;;;22.60;56.90;;;;;;5030735;28;20037;-63
2022/06/14 12:08:24;;;;;;;6.68;1.95;;;22.70;57.40;;;;;;5037071;28;20390;-63
2022/06/14 12:10:52;;;;;;;5.85;1.80;;;22.70;57.30;;;;;;5043609;28;20873;-61
2022/06/14 12:13:38;;;;;;;7.18;2.13;;;22.70;58.10;;;;;;5043260;28;20031;-62
2022/06/14 12:16:33;;;;;;;5.35;1.80;;;22.70;58.20;;;;;;5037741;28;20037;-63
2022/06/14 12:19:09;;;;;;;4.78;1.60;;;22.60;57.60;;;;;;5038804;28;20073;-62
2022/06/14 12:21:52;;;;;;;10.43;2.22;;;22.70;58.60;;;;;;5048222;28;20025;-64
2022/06/14 12:26:34;;;;;;;4.55;1.65;;;22.60;57.10;;;;;;5051032;28;20478;-63
2022/06/14 12:27:10;;;;;;;;;;;22.70;58.00;;;;;;5038326;28;20133;-63
2022/06/14 12:29:40;;;;;;;6.30;2.30;;;22.70;59.30;;;;;;5039291;28;19909;-62
2022/06/14 12:32:28;;;;;;;5.85;1.52;;;22.50;57.60;;;;;;5047113;28;20032;-67
2022/06/14 12:35:06;;;;;;;5.15;2.08;;;22.50;57.70;;;;;;5049493;28;20037;-66
2022/06/14 12:38:00;;;;;;;4.22;1.33;;;22.50;57.60;;;;;;5046823;28;20071;-63
2022/06/14 12:40:53;;;;;;;8.90;1.83;;;22.60;59.80;;;;;;5051884;28;20033;-65
2022/06/14 12:43:23;;;;;;;3.92;1.25;;;22.70;60.30;;;;;;5043938;28;20036;-67
2022/06/14 12:45:57;;;;;;;3.83;1.13;;;22.70;59.70;;;;;;5031819;28;20116;-63
2022/06/14 12:48:34;;;;;;;5.47;1.80;;;22.70;60.30;;;;;;5042330;28;20032;-62
2022/06/14 12:51:12;;;;;;;5.22;2.17;;;22.60;58.30;;;;;;5037855;28;20104;-63
2022/06/14 12:53:53;;;;;;;4.47;1.60;;;22.60;57.70;;;;;;5048438;28;20405;-62
2022/06/14 12:56:33;;;;;;;5.28;2.17;;;22.70;60.00;;;;;;5045490;28;20025;-64
2022/06/14 12:59:19;;;;;;;8.18;2.08;;;22.70;57.70;;;;;;5042431;28;20029;-62
2022/06/14 13:01:55;;;;;;;3.40;1.50;;;22.60;57.90;;;;;;5051615;28;20401;-62
2022/06/14 13:04:46;;;;;;;4.18;1.20;;;22.60;59.00;;;;;;5033040;28;20040;-65
2022/06/14 13:07:51;;;;;;;3.90;1.42;;;22.70;61.50;;;;;;5050814;28;20033;-63
2022/06/14 13:10:41;;;;;;;6.45;1.38;;;22.70;59.80;;;;;;5031846;28;20067;-62
2022/06/14 13:13:21;;;;;;;4.18;1.42;;;22.80;60.60;;;;;;5051559;28;20021;-63
2022/06/14 13:16:19;;;;;;;3.72;1.38;;;22.80;60.00;;;;;;5051275;28;20120;-61
2022/06/14 13:19:09;;;;;;;4.85;1.77;;;22.80;59.70;;;;;;5049384;28;20017;-61
2022/06/14 13:21:38;;;;;;;3.33;1.08;;;22.80;59.60;;;;;;5043710;28;20021;-61
2022/06/14 13:24:37;;;;;;;6.82;2.03;;;22.80;60.70;;;;;;5042548;28;20044;-61
2022/06/14 13:27:56;;;;;;;6.88;1.92;;;22.80;58.70;;;;;;5041869;28;20074;-66
2022/06/14 13:30:40;;;;;;;4.78;1.40;;;22.70;57.70;;;;;;4972749;28;20031;-63
2022/06/14 13:33:11;;;;;;;3.88;1.40;;;22.80;60.90;;;;;;4970241;28;20073;-66
2022/06/14 13:36:24;;;;;;;4.70;1.83;;;22.80;60.50;;;;;;5004598;28;20037;-64
2022/06/14 13:38:57;;;;;;;3.35;1.25;;;22.80;60.80;;;;;;5050000;28;20036;-66
2022/06/14 13:41:40;;;;;;;8.32;2.40;;;22.90;60.10;;;;;;5052022;28;20027;-63
2022/06/14 13:44:20;;;;;;;3.65;1.50;;;22.90;58.20;;;;;;5054990;28;20025;-63
2022/06/14 13:46:53;;;;;;;5.47;1.75;;;22.90;58.40;;;;;;5039122;28;20116;-66
2022/06/14 13:49:41;;;;;;;7.78;1.70;;;22.80;57.50;;;;;;5044690;28;20028;-65
2022/06/14 13:52:32;;;;;;;5.05;1.70;;;22.80;60.10;;;;;;5040979;28;20026;-65
2022/06/14 13:55:13;;;;;;;5.93;1.75;;;22.90;59.90;;;;;;5049959;28;20043;-66
2022/06/14 13:57:48;;;;;;;4.00;1.88;;;22.90;58.90;;;;;;5050548;28;20116;-63
2022/06/14 14:00:19;;;;;;;7.47;2.10;;;22.90;57.90;;;;;;5054918;28;20095;-61
2022/06/14 14:02:48;;;;;;;3.63;1.48;;;22.70;57.80;;;;;;5054563;28;20040;-63
2022/06/14 14:05:36;;;;;;;5.05;1.67;;;22.70;58.40;;;;;;5053677;28;20052;-61